• Join FlightAware (Why Join?)
  • Login
  • US Flag 
03:39AM EST


 

Airport Tracker/Info


-or-


 

Live Flight TrackerFlight Track Log ✈ N761BT ✈ 06-Apr-2014 ✈ KCRG - KLXT

Flight Track Log - Related Links

Times and Time Zones

All times are in EDT time to prevent confusion due to time zone crossing. See the N761BT flight status page for this flight to view local times or setup timezone preferences in your user account.

Time Position Orientation Groundspeed Altitude Reporting Facility
EDT Latitude Longitude Course Direction KTS MPH feet Rate Location/Type
01:03PM 30.3489 -81.5278 North 74 85 400  Level Jacksonville Center
01:03PM 30.3636 -81.5253 North 83 96 600 420 Climbing Jacksonville Center
01:04PM 30.3886 -81.5175 15° North 91 105 1,100 480 Climbing Jacksonville Center
01:05PM 30.4136 -81.5122 10° North 98 113 1,600 480 Climbing Jacksonville Center
01:06PM 30.4447 -81.5047 12° North 108 124 2,100 480 Climbing Jacksonville Center
01:07PM 30.4739 -81.4947 16° North 107 123 2,600 420 Climbing Jacksonville Center
01:08PM 30.5053 -81.4869 12° North 114 131 3,000 360 Climbing Jacksonville Center
01:09PM 30.5364 -81.4792 12° North 125 144 3,400 420 Climbing Jacksonville Center
01:10PM 30.5719 -81.4739 North 128 147 3,900 480 Climbing Jacksonville Center
01:11PM 30.6050 -81.4661 11° North 128 147 4,400 420 Climbing Jacksonville Center
01:12PM 30.6386 -81.4778 343° North 121 139 4,800 300 Climbing Jacksonville Center
01:13PM 30.6764 -81.4892 345° North 126 145 5,000 300 Climbing Jacksonville Center
01:14PM 30.7100 -81.5033 340° North 131 151 5,400 360 Climbing Jacksonville Center
01:15PM 30.7456 -81.5172 341° North 131 151 5,800 420 Climbing Jacksonville Center
01:16PM 30.7769 -81.5264 346° North 131 151 6,300 420 Climbing Jacksonville Center
01:17PM 30.8106 -81.5381 343° North 126 145 6,700 360 Climbing Jacksonville Center
01:18PM 30.8419 -81.5544 336° Northwest 126 145 7,100 180 Climbing Jacksonville Center
01:19PM 30.8736 -81.5711 336° Northwest 135 155 7,100 -60 Level Jacksonville Center
01:20PM 30.9092 -81.5922 333° Northwest 135 155 7,000 -60 Descending Jacksonville Center
01:21PM 30.9469 -81.6161 332° Northwest 141 162 7,000  Level Jacksonville Center
01:22PM 30.9808 -81.6447 324° Northwest 141 162 7,000  Level Jacksonville Center
01:23PM 31.0186 -81.6683 332° Northwest 147 169 7,000  Level Jacksonville Center
01:24PM 31.0583 -81.6775 349° North 147 169 7,100 180 Climbing Jacksonville Center
01:25PM 31.1044 -81.6892 348° North 147 169 7,400 300 Climbing Jacksonville Center
01:26PM 31.1381 -81.7056 337° Northwest 137 158 7,800 300 Climbing Jacksonville Center
01:27PM 31.1675 -81.7294 325° Northwest 137 158 8,000 60 Climbing Jacksonville Center
01:28PM 31.2031 -81.7511 332° Northwest 147 169 8,000  Level Jacksonville Center
01:29PM 31.2450 -81.7722 337° Northwest 147 169 8,100 -60 Climbing Jacksonville Center
01:30PM 31.2850 -81.7961 333° Northwest 152 175 7,900 -60 Descending Jacksonville Center
01:31PM 31.3206 -81.8153 335° Northwest 153 176 8,000  Climbing Jacksonville Center
01:32PM 31.3561 -81.8367 333° Northwest 153 176 8,000 -120 Level Jacksonville Center
01:33PM 31.3983 -81.8631 332° Northwest 153 176 7,800 -60 Descending Jacksonville Center
01:34PM 31.4400 -81.8819 339° North 160 184 7,900  Climbing Jacksonville Center
01:35PM 31.4819 -81.8961 344° North 149 171 7,900 -60 Level Jacksonville Center
01:36PM 31.5175 -81.9106 341° North 149 171 7,800  Descending Jacksonville Center
01:37PM 31.5575 -81.9294 338° Northwest 149 171 7,900  Climbing Jacksonville Center
01:38PM 31.5953 -81.9608 325° Northwest 155 178 7,800  Descending Jacksonville Center
01:39PM 31.6331 -81.9847 332° Northwest 155 178 7,900  Climbing Jacksonville Center
01:40PM 31.6728 -82.0017 340° North 150 173 7,900  Level Jacksonville Center
01:41PM 31.7125 -82.0108 349° North 150 173 7,900  Level Jacksonville Center
01:42PM 31.7544 -82.0275 341° North 155 178 8,000  Climbing Jacksonville Center
01:43PM 31.8025 -82.0467 341° North 155 178 7,900  Descending Jacksonville Center
01:44PM 31.8422 -82.0661 337° Northwest 155 178 8,100 180 Climbing Jacksonville Center
01:45PM 31.8739 -82.0925 325° Northwest 144 166 8,300 240 Climbing Jacksonville Center
01:46PM 31.9053 -82.1167 327° Northwest 149 171 8,600 300 Climbing Jacksonville Center
01:47PM 31.9408 -82.1386 332° Northwest 144 166 8,900 360 Climbing Jacksonville Center
01:48PM 31.9725 -82.1700 320° Northwest 134 154 9,400 420 Climbing Jacksonville Center
01:49PM 32.0122 -82.1772 351° North 134 154 9,800 360 Climbing Jacksonville Center
01:50PM 32.0456 -82.1867 346° North 134 154 10,200 360 Climbing Jacksonville Center
01:52PM 32.1194 -82.2217 338° Northwest 145 167 11,000 360 Climbing Atlanta Center
01:53PM 32.1531 -82.2456 329° Northwest 139 160 11,300 300 Climbing Atlanta Center
01:54PM 32.1683 -82.2819 296° West 125 144 11,700 180 Climbing Atlanta Center
01:56PM 32.2008 -82.3353 306° West 139 160 11,800 60 Climbing Jacksonville Center
01:57PM 32.2197 -82.3744 300° West 144 166 11,900 60 Climbing Jacksonville Center
01:58PM 32.2533 -82.4111 317° Northwest 149 171 12,000  Climbing Jacksonville Center
01:59PM 32.2764 -82.4528 303° West 154 177 12,000 -120 Level Jacksonville Center
02:00PM 32.2850 -82.4969 283° West 147 169 11,800 -120 Descending Jacksonville Center
02:01PM 32.2914 -82.5461 279° West 142 163 11,800  Level Jacksonville Center
02:02PM 32.2978 -82.5878 280° West 142 163 11,900  Climbing Jacksonville Center
02:03PM 32.3083 -82.6344 285° West 142 163 11,900 -60 Level Jacksonville Center
02:04PM 32.3153 -82.6847 279° West 143 165 11,800 -60 Descending Atlanta Center
02:05PM 32.3219 -82.7264 281° West 143 165 11,800  Level Atlanta Center
02:06PM 32.3328 -82.7728 285° West 143 165 11,800  Level Atlanta Center
02:07PM 32.3417 -82.8194 283° West 143 165 11,800  Level Atlanta Center
02:08PM 32.3483 -82.8611 281° West 143 165 11,900 60 Climbing Atlanta Center
02:09PM 32.3656 -82.9053 295° West 143 165 12,000  Climbing Atlanta Center
02:10PM 32.3681 -82.9494 274° West 143 165 11,900 -60 Descending Atlanta Center
02:11PM 32.3642 -82.9914 264° West 136 157 11,900  Level Atlanta Center
02:12PM 32.3644 -83.0356 270° West 136 157 12,000 -60 Climbing Atlanta Center
02:13PM 32.3522 -83.0750 250° West 142 163 11,800 -60 Descending Atlanta Center
02:14PM 32.3608 -83.1167 284° West 142 163 11,900  Climbing Atlanta Center
02:15PM 32.3675 -83.1658 279° West 142 163 11,900  Level Atlanta Center
02:16PM 32.3761 -83.2075 284° West 142 163 11,900  Level Atlanta Center
02:17PM 32.3808 -83.2567 277° West 142 163 11,900  Level Atlanta Center
02:18PM 32.3894 -83.3008 283° West 142 163 11,900 -60 Level Atlanta Center
02:19PM 32.3917 -83.3478 273° West 142 163 11,800  Descending Atlanta Center
02:20PM 32.4044 -83.3894 290° West 142 163 11,900 60 Climbing Atlanta Center
02:21PM 32.4108 -83.4286 281° West 142 163 12,000  Climbing Atlanta Center
02:22PM 32.4300 -83.4728 297° West 142 163 11,900 -120 Descending Atlanta Center
02:23PM 32.4633 -83.4850 343° North 136 157 11,800 -60 Descending Atlanta Center
02:24PM 32.5050 -83.4675 20° North 117 135 11,800  Level Atlanta Center
02:25PM 32.5489 -83.4572 11° North 141 162 11,900  Climbing Atlanta Center
02:26PM 32.5886 -83.4594 357° North 146 168 11,900  Level Atlanta Center
02:27PM 32.6094 -83.4964 304° West 123 142 11,900  Level Atlanta Center
02:28PM 32.6306 -83.5308 306° West 123 142 11,900  Level Atlanta Center
02:29PM 32.6517 -83.5653 306° West 129 148 11,900  Level Atlanta Center
02:30PM 32.6725 -83.6019 304° West 134 154 11,900  Level Atlanta Center
02:31PM 32.6914 -83.6367 303° West 134 154 12,000 -120 Climbing Atlanta Center
02:32PM 32.7103 -83.6736 301° West 129 148 11,700 -120 Descending Atlanta Center
02:33PM 32.7231 -83.7153 290° West 134 154 11,800 60 Climbing Atlanta Center
02:34PM 32.7378 -83.7572 293° West 134 154 11,900  Climbing Atlanta Center
02:35PM 32.7544 -83.7919 300° West 129 148 11,800  Descending Atlanta Center
02:36PM 32.7922 -83.8114 337° Northwest 129 148 11,900  Climbing Atlanta Center
02:37PM 32.8275 -83.8311 335° Northwest 129 148 11,900  Level Atlanta Center
02:38PM 32.8653 -83.8533 334° Northwest 140 161 11,900  Level Atlanta Center
02:39PM 32.8986 -83.8781 328° Northwest 140 161 12,000  Climbing Atlanta Center
02:40PM 32.9322 -83.9100 321° Northwest 140 161 12,000  Level Atlanta Center
02:41PM 32.9614 -83.9422 317° Northwest 145 167 12,000 -120 Level Atlanta Center
02:42PM 32.9844 -83.9769 308° West 145 167 11,800 -60 Descending Atlanta Center
02:43PM 33.0156 -84.0017 326° Northwest 133 153 11,900  Climbing Atlanta Center
02:44PM 33.0450 -84.0289 322° Northwest 133 153 11,800  Descending Atlanta Center
02:45PM 33.0636 -84.0711 298° West 132 152 11,900  Climbing Atlanta Center
02:46PM 33.0803 -84.1083 298° West 138 159 11,900  Level Atlanta Center
02:48PM 33.1333 -84.1833 310° West 144 166 11,900  Level Atlanta TRACON
02:49PM 33.1667 -84.2167 320° Northwest 141 162 11,900  Level Atlanta TRACON
02:50PM 33.1833 -84.2667 292° West 139 160 11,900  Level Atlanta TRACON
02:51PM 33.2167 -84.3000 320° Northwest 138 159 11,900  Level Atlanta TRACON
02:52PM 33.2333 -84.3333 301° West 139 160 11,900 -60 Level Atlanta TRACON
02:53PM 33.2500 -84.3667 301° West 141 162 11,800  Descending Atlanta TRACON
02:54PM 33.2833 -84.4000 320° Northwest 131 151 11,900  Climbing Atlanta TRACON
02:55PM 33.3000 -84.4333 301° West 138 159 11,900  Level Atlanta TRACON
02:56PM 33.3333 -84.4833 309° West 139 160 11,900  Level Atlanta TRACON
02:57PM 33.3500 -84.5167 301° West 134 154 11,900  Level Atlanta TRACON
02:58PM 33.3667 -84.5500 301° West 138 159 12,000  Climbing Atlanta TRACON
02:59PM 33.3833 -84.6000 292° West 144 166 11,900 -60 Descending Atlanta TRACON
03:00PM 33.4167 -84.6333 320° Northwest 139 160 11,900  Level Atlanta TRACON
03:01PM 33.4500 -84.6667 320° Northwest 141 162 11,900  Level Atlanta TRACON
03:02PM 33.4667 -84.7000 301° West 140 161 11,900  Level Atlanta TRACON
03:05PM 33.5289 -84.7839 312° West 137 158 12,000  Climbing Atlanta Center
03:06PM 33.5519 -84.8117 315° West 131 151 11,900 -120 Descending Atlanta Center
03:07PM 33.5767 -84.8467 310° West 136 157 11,800  Descending Atlanta Center
03:08PM 33.5972 -84.8792 307° West 131 151 11,900  Climbing Atlanta Center
03:09PM 33.6158 -84.9144 302° West 131 151 11,900 -60 Level Atlanta Center
03:10PM 33.6447 -84.9497 315° West 126 145 11,800 -60 Descending Atlanta Center
03:11PM 33.6675 -84.9872 306° West 131 151 11,800 -60 Level Atlanta Center
03:12PM 33.6839 -85.0300 295° West 136 157 11,700 -60 Descending Atlanta Center
03:13PM 33.6939 -85.0750 285° West 141 162 11,700  Level Atlanta Center
03:14PM 33.7186 -85.1103 310° West 141 162 11,800  Climbing Atlanta Center
03:15PM 33.7433 -85.1431 312° West 136 157 11,700 -540 Descending Atlanta Center
03:16PM 33.7764 -85.1808 316° Northwest 147 169 10,800 -840 Descending Atlanta Center
03:17PM 33.8075 -85.2164 316° Northwest 152 175 10,100 -660 Descending Atlanta Center
03:18PM 33.8342 -85.2492 314° West 152 175 9,500 -600 Descending Atlanta Center
03:19PM 33.8631 -85.2847 314° West 152 175 8,900 -660 Descending Atlanta Center
03:20PM 33.8897 -85.3250 309° West 152 175 8,200 -480 Descending Atlanta Center
03:21PM 33.9144 -85.3681 305° West 157 181 8,000 -120 Descending Atlanta Center
03:22PM 33.9411 -85.4036 312° West 152 175 8,000  Level Atlanta Center
03:23PM 33.9719 -85.4414 315° West 152 175 8,000  Level Atlanta Center
03:24PM 34.0050 -85.4797 316° Northwest 147 169 8,000  Level Atlanta Center
03:25PM 34.0275 -85.5175 306° West 142 163 8,000  Level Atlanta Center
03:26PM 34.0500 -85.5556 306° West 142 163 8,000  Level Atlanta Center
03:27PM 34.0767 -85.5961 308° West 147 169 8,000 -60 Level Atlanta Center
03:28PM 34.0992 -85.6342 306° West 147 169 7,900 -60 Descending Atlanta Center
03:29PM 34.1300 -85.6700 316° Northwest 147 169 7,900  Level Atlanta Center
03:30PM 34.1483 -85.7056 302° West 137 158 8,000  Climbing Atlanta Center
03:31PM 34.1622 -85.7508 290° West 132 152 8,000  Level Atlanta Center
03:32PM 34.1783 -85.7914 296° West 137 158 8,100  Climbing Atlanta Center
03:33PM 34.2008 -85.8269 307° West 137 158 8,000 -120 Descending Atlanta Center
03:34PM 34.2272 -85.8728 305° West 143 165 7,900 -60 Descending Atlanta Center
03:35PM 34.2539 -85.9136 308° West 155 178 7,900  Level Atlanta Center
03:36PM 34.2783 -85.9519 308° West 155 178 7,900  Level Atlanta Center
03:38PM 34.3325 -86.0397 307° West 152 175 7,900  Level Memphis Center
03:39PM 34.3603 -86.0797 310° West 152 175 7,900  Level Memphis Center
03:40PM 34.3856 -86.1281 302° West 148 170 7,900  Level Memphis Center
03:42PM 34.4372 -86.2111 307° West 149 171 7,900  Level Memphis Center
03:43PM 34.4617 -86.2536 305° West 151 174 7,900 -60 Level Memphis Center
03:44PM 34.4869 -86.2956 306° West 151 174 7,800  Descending Memphis Center
03:45PM 34.5103 -86.3381 304° West 151 174 7,900  Climbing Memphis Center
03:46PM 34.5408 -86.3872 307° West 151 174 7,900  Level Memphis Center
03:47PM 34.5664 -86.4319 305° West 153 176 8,000  Climbing Memphis Center
03:48PM 34.5906 -86.4761 304° West 156 180 8,000 -60 Level Memphis Center
03:49PM 34.6192 -86.5172 310° West 156 180 7,900 -60 Descending Memphis Center
03:50PM 34.6494 -86.5556 314° West 156 180 7,900  Level Memphis Center
03:51PM 34.6753 -86.5992 306° West 157 181 8,000  Climbing Memphis Center
03:52PM 34.6997 -86.6408 306° West 157 181 8,000 -60 Level Memphis Center
03:53PM 34.7294 -86.6936 304° West 157 181 7,900 -60 Descending Memphis Center
03:54PM 34.7550 -86.7358 306° West 157 181 7,900  Level Memphis Center
03:55PM 34.7833 -86.7753 311° West 157 181 8,000  Climbing Memphis Center
03:56PM 34.8058 -86.8169 303° West 152 175 8,000 -60 Level Memphis Center
03:57PM 34.8317 -86.8617 305° West 156 180 7,900 -60 Descending Memphis Center
03:58PM 34.8564 -86.9053 305° West 159 183 7,900  Level Memphis Center
03:59PM 34.8908 -86.9528 311° West 158 182 7,900  Level Memphis Center
04:00PM 34.9206 -86.9917 313° West 158 182 7,900  Level Memphis Center
04:01PM 34.9481 -87.0328 309° West 158 182 7,900  Level Memphis Center
04:02PM 34.9711 -87.0764 303° West 157 181 8,000  Climbing Memphis Center
04:04PM 34.9967 -87.1189 306° West 157 181 7,900 -60 Descending Memphis Center
04:05PM 35.0219 -87.1608 306° West 157 181 7,900  Level Memphis Center
04:06PM 35.0522 -87.2142 305° West 157 181 7,900  Level Memphis Center
04:07PM 35.0750 -87.2572 303° West 157 181 7,900  Level Memphis Center
04:08PM 35.1000 -87.2989 306° West 156 180 7,900  Level Memphis Center
04:10PM 35.1533 -87.3847 307° West 157 181 7,900  Level Memphis Center
04:11PM 35.1825 -87.4231 313° West 157 181 7,900  Level Memphis Center
04:12PM 35.2058 -87.4675 303° West 157 181 7,900  Level Memphis Center
04:13PM 35.2353 -87.5217 304° West 157 181 7,900  Level Memphis Center
04:14PM 35.2633 -87.5625 310° West 159 183 7,900 -60 Level Memphis Center
04:15PM 35.2919 -87.6033 311° West 159 183 7,800  Descending Memphis Center
04:16PM 35.3133 -87.6503 299° West 159 183 7,900  Climbing Memphis Center
04:17PM 35.3383 -87.6922 306° West 158 182 7,900  Level Memphis Center
04:18PM 35.3628 -87.7344 305° West 156 180 7,900  Level Memphis Center
04:19PM 35.3931 -87.7847 306° West 155 178 7,900  Level Memphis Center
04:20PM 35.4169 -87.8242 307° West 155 178 7,900  Level Memphis Center
04:21PM 35.4444 -87.8667 308° West 156 180 7,900  Level Memphis Center
04:22PM 35.4725 -87.9081 310° West 156 180 7,900  Level Memphis Center
04:23PM 35.5011 -87.9608 304° West 156 180 7,900  Level Memphis Center
04:24PM 35.5267 -88.0081 304° West 159 183 7,900  Level Memphis Center
04:25PM 35.5500 -88.0511 304° West 158 182 7,900  Level Memphis Center
04:26PM 35.5786 -88.0925 310° West 157 181 7,900  Level Memphis Center
04:27PM 35.6078 -88.1319 312° West 157 181 8,000  Climbing Memphis Center
04:28PM 35.6331 -88.1783 304° West 153 176 7,900 -60 Descending Memphis Center
04:29PM 35.6564 -88.2250 302° West 156 180 7,900  Level Memphis Center
04:30PM 35.6836 -88.2683 308° West 157 181 7,900  Level Memphis Center
04:31PM 35.7089 -88.3097 307° West 157 181 7,900  Level Memphis Center
04:32PM 35.7292 -88.3517 301° West 147 169 8,000  Climbing Memphis Center
04:33PM 35.7572 -88.4033 304° West 148 170 7,900 -120 Descending Memphis Center
04:34PM 35.7847 -88.4458 309° West 155 178 7,800  Descending Memphis Center
04:35PM 35.8089 -88.4872 306° West 154 177 8,000  Climbing Memphis Center
04:37PM 35.8319 -88.5344 301° West 156 180 7,900 -60 Descending Memphis Center
04:38PM 35.8578 -88.5775 307° West 157 181 7,900  Level Memphis Center
04:39PM 35.8836 -88.6186 308° West 156 180 7,900  Level Memphis Center
04:40PM 35.9089 -88.6594 307° West 154 177 7,900 -60 Level Memphis Center
04:41PM 35.9422 -88.7092 310° West 154 177 7,800  Descending Memphis Center
04:42PM 35.9692 -88.7483 310° West 154 177 7,900 60 Climbing Memphis Center
04:43PM 35.9878 -88.7931 297° West 149 171 8,000  Climbing Memphis Center
04:44PM 36.0092 -88.8356 302° West 149 171 8,000 -60 Level Memphis Center
04:45PM 36.0342 -88.8817 304° West 156 180 7,900 -120 Descending Memphis Center
04:46PM 36.0633 -88.9228 311° West 157 181 7,800  Descending Memphis Center
04:47PM 36.0881 -88.9689 304° West 158 182 7,900  Climbing Memphis Center
04:48PM 36.1217 -89.0181 310° West 157 181 7,900  Level Memphis Center
04:49PM 36.1447 -89.0625 303° West 156 180 7,900  Level Memphis Center
04:50PM 36.1681 -89.1064 303° West 154 177 7,900  Level Memphis Center
04:52PM 36.2186 -89.1903 307° West 154 177 7,900  Level Memphis Center
04:53PM 36.2417 -89.2344 303° West 153 176 7,900  Level Memphis Center
04:54PM 36.2669 -89.2764 307° West 153 176 8,000  Climbing Memphis Center
04:55PM 36.3006 -89.3256 310° West 153 176 7,900 -60 Descending Memphis Center
04:56PM 36.3281 -89.3672 309° West 153 176 7,900  Level Memphis Center
04:57PM 36.3481 -89.4139 298° West 153 176 7,900  Level Memphis Center
04:58PM 36.3722 -89.4567 305° West 153 176 7,900  Level Memphis Center
04:59PM 36.3969 -89.4992 306° West 153 176 7,900  Level Memphis Center
05:00PM 36.4228 -89.5414 307° West 152 175 7,900  Level Memphis Center
05:01PM 36.4458 -89.5850 303° West 152 175 7,900 -60 Level Memphis Center
05:02PM 36.4656 -89.6322 297° West 152 175 7,800  Descending Memphis Center
05:03PM 36.4978 -89.6825 309° West 152 175 7,900 -60 Climbing Memphis Center
05:04PM 36.5178 -89.7258 300° West 151 174 7,700 -120 Descending Memphis Center
05:05PM 36.5381 -89.7722 299° West 151 174 7,700  Level Memphis Center
05:06PM 36.5656 -89.8144 309° West 152 175 7,800  Climbing Memphis Center
05:07PM 36.5914 -89.8561 308° West 153 176 7,800 -60 Level Memphis Center
05:09PM 36.6161 -89.9008 305° West 153 176 7,700  Descending Memphis Center
05:10PM 36.6414 -89.9447 306° West 156 180 7,800  Climbing Memphis Center
05:11PM 36.6722 -89.9983 306° West 156 180 7,800  Level Memphis Center
05:12PM 36.6975 -90.0403 307° West 156 180 7,800  Level Memphis Center
05:13PM 36.7206 -90.0881 301° West 157 181 7,800  Level Memphis Center
05:14PM 36.7456 -90.1336 304° West 157 181 7,800  Level Memphis Center
05:15PM 36.7708 -90.1794 305° West 157 181 7,800 -60 Level Memphis Center
05:16PM 36.7942 -90.2256 302° West 157 181 7,700  Descending Memphis Center
05:17PM 36.8206 -90.2792 302° West 157 181 7,800  Climbing Memphis Center
05:18PM 36.8464 -90.3239 306° West 157 181 7,800 -60 Level Memphis Center
05:19PM 36.8761 -90.3669 311° West 157 181 7,700 -60 Descending Memphis Center
05:20PM 36.9022 -90.4125 306° West 158 182 7,700 60 Level Memphis Center
05:21PM 36.9267 -90.4553 306° West 158 182 7,900 60 Climbing Memphis Center
05:22PM 36.9497 -90.5019 302° West 157 181 7,900  Level Memphis Center
05:23PM 36.9747 -90.5556 300° West 154 177 7,900  Level Memphis Center
05:24PM 36.9981 -90.6022 302° West 154 177 8,000  Climbing Memphis Center
05:25PM 37.0222 -90.6492 303° West 156 180 7,900 -60 Descending Memphis Center
05:26PM 37.0475 -90.6944 305° West 157 181 7,900 -60 Level Memphis Center
05:27PM 37.0703 -90.7417 301° West 157 181 7,800  Descending Memphis Center
05:28PM 37.0958 -90.7908 303° West 157 181 7,900  Climbing Memphis Center
05:29PM 37.1208 -90.8364 305° West 157 181 7,900  Level Memphis Center
05:30PM 37.1403 -90.8736 303° West 157 181 7,900 -60 Level Kansas City Center
05:31PM 37.1636 -90.9178 304° West 156 180 7,800  Descending Kansas City Center
05:32PM 37.1911 -90.9608 309° West 156 180 7,900  Climbing Kansas City Center
05:33PM 37.2247 -91.0100 311° West 156 180 7,900  Level Kansas City Center
05:34PM 37.2494 -91.0550 305° West 156 180 7,900  Level Kansas City Center
05:35PM 37.2736 -91.1006 304° West 155 178 7,900  Level Kansas City Center
05:36PM 37.2969 -91.1472 302° West 156 180 7,900 -60 Level Kansas City Center
05:37PM 37.3236 -91.1900 308° West 156 180 7,800  Descending Kansas City Center
05:38PM 37.3456 -91.2358 301° West 156 180 7,900  Climbing Kansas City Center
05:39PM 37.3703 -91.2814 304° West 156 180 7,900  Level Kansas City Center
05:40PM 37.4014 -91.3333 307° West 155 178 7,900  Level Kansas City Center
05:41PM 37.4244 -91.3797 302° West 155 178 7,900  Level Kansas City Center
05:42PM 37.4444 -91.4267 298° West 155 178 7,900  Level Kansas City Center
05:43PM 37.4692 -91.4722 304° West 155 178 7,900  Level Kansas City Center
05:45PM 37.4944 -91.5175 305° West 155 178 7,900  Level Kansas City Center
05:46PM 37.5178 -91.5667 301° West 157 181 7,900  Level Kansas City Center
05:47PM 37.5525 -91.6194 310° West 159 183 7,900  Level Kansas City Center
05:48PM 37.5775 -91.6642 305° West 159 183 7,900  Level Kansas City Center
05:49PM 37.6017 -91.7100 304° West 158 182 7,900 -60 Level Kansas City Center
05:50PM 37.6247 -91.7597 300° West 159 183 7,800 -60 Descending Kansas City Center
05:51PM 37.6503 -91.8061 305° West 159 183 7,800  Level Kansas City Center
05:52PM 37.6764 -91.8531 305° West 160 184 7,800  Level Kansas City Center
05:53PM 37.6992 -91.9028 300° West 161 185 7,900  Climbing Kansas City Center
05:54PM 37.7289 -91.9572 305° West 160 184 7,800  Descending Kansas City Center
05:55PM 37.7533 -92.0044 303° West 160 184 8,000  Climbing Kansas City Center
05:56PM 37.7800 -92.0497 307° West 160 184 7,900 -60 Descending Kansas City Center
05:57PM 37.8056 -92.0964 305° West 160 184 7,900  Level Kansas City Center
05:58PM 37.8333 -92.1428 307° West 161 185 7,900 -60 Level Kansas City Center
05:59PM 37.8522 -92.1947 295° West 162 186 7,800 -60 Descending Kansas City Center
06:00PM 37.8744 -92.2436 300° West 160 184 7,800  Level Kansas City Center
06:01PM 37.9069 -92.3000 306° West 163 188 7,900  Climbing Kansas City Center
06:02PM 37.9331 -92.3475 305° West 163 188 7,800 -60 Descending Kansas City Center
06:03PM 37.9567 -92.4003 300° West 163 188 7,800  Level Kansas City Center
06:04PM 37.9786 -92.4514 299° West 163 188 7,900  Climbing Kansas City Center
06:05PM 38.0033 -92.4997 303° West 163 188 7,800 -60 Descending Kansas City Center
06:06PM 38.0303 -92.5478 305° West 164 189 7,800  Level Kansas City Center
06:07PM 38.0606 -92.5900 312° West 163 188 7,800  Level Kansas City Center
06:08PM 38.0917 -92.6311 314° West 163 188 7,800 -60 Level Kansas City Center
06:09PM 38.1136 -92.6825 299° West 163 188 7,700 -60 Descending Kansas City Center
06:10PM 38.1286 -92.7375 289° West 163 188 7,700  Level Kansas City Center
06:11PM 38.1547 -92.7978 299° West 163 188 7,800  Climbing Kansas City Center
06:12PM 38.1858 -92.8408 313° West 163 188 7,800  Level Kansas City Center
06:13PM 38.2144 -92.8867 308° West 163 188 7,800  Level Kansas City Center
06:15PM 38.2428 -92.9322 308° West 163 188 7,900  Climbing Kansas City Center
06:16PM 38.2692 -92.9781 306° West 163 188 7,900  Level Kansas City Center
06:17PM 38.2931 -93.0256 303° West 162 186 7,900  Level Kansas City Center
06:18PM 38.3156 -93.0769 299° West 162 186 7,900 -120 Level Kansas City Center
06:19PM 38.3464 -93.1369 303° West 163 188 7,700 -60 Descending Kansas City Center
06:20PM 38.3739 -93.1853 306° West 164 189 7,800  Climbing Kansas City Center
06:21PM 38.3994 -93.2333 304° West 164 189 7,800  Level Kansas City Center
06:22PM 38.4211 -93.2836 299° West 164 189 7,800  Level Kansas City Center
06:23PM 38.4461 -93.3336 303° West 164 189 7,800  Level Kansas City Center
06:24PM 38.4742 -93.3808 307° West 164 189 7,800  Level Kansas City Center
06:25PM 38.4983 -93.4319 301° West 165 190 7,800  Level Kansas City Center
06:26PM 38.5222 -93.4958 296° West 165 190 7,800  Level Kansas City Center
06:27PM 38.5453 -93.5447 301° West 163 188 7,800 -300 Level Kansas City Center
06:28PM 38.5747 -93.5917 309° West 163 188 7,200 -600 Descending Kansas City Center
06:29PM 38.6028 -93.6386 307° West 164 189 6,600 -600 Descending Kansas City Center
06:30PM 38.6233 -93.6897 297° West 163 188 6,000 -540 Descending Kansas City Center
06:31PM 38.6461 -93.7389 301° West 163 188 5,500 -540 Descending Kansas City Center
06:32PM 38.6731 -93.7872 306° West 161 185 5,000 -600 Descending Kansas City Center
06:33PM 38.7008 -93.8397 304° West 160 184 4,300 -540 Descending Kansas City Center
06:34PM 38.7231 -93.8836 303° West 157 181 3,900 -300 Descending Kansas City Center
06:35PM 38.7436 -93.9333 298° West 142 163 3,800 -120 Descending Kansas City Center
06:36PM 38.7606 -93.9747 298° West 138 159 3,700 -60 Descending Kansas City Center
06:37PM 38.7847 -94.0194 305° West 137 158 3,700  Level Kansas City Center
06:38PM 38.8075 -94.0586 307° West 139 160 3,700 -60 Level Kansas City Center
06:39PM 38.8303 -94.0958 308° West 138 159 3,600 -120 Descending Kansas City Center
06:41PM 38.8545 -94.1484 311° West  Level FlightAware Approximate
06:48PM 38.9500 -94.3667 180° South  Level FlightAware Approximate
06:49PM 38.9597 -94.3714 180° South  Level Estimated
06:50PM 38.9597 -94.3714 180° South  Level Estimated
06:51PM 38.9597 -94.3714 180° South  Level Estimated
06:52PM 38.9597 -94.3714 180° South  Level Estimated
06:53PM 38.9597 -94.3714 180° South  Level Estimated
06:54PM 38.9597 -94.3714 180° South  Level Estimated
06:55PM 38.9597 -94.3714 180° South  Level Estimated
06:56PM 38.9597 -94.3714 180° South  Level Estimated